createdAt,value
2019-03-17T00:00:55.817Z,90.42
2019-03-17T00:03:25.961Z,88.20
2019-03-17T00:05:56.327Z,93.65
2019-03-17T00:08:26.521Z,90.30
2019-03-17T00:10:56.528Z,85.77
2019-03-17T00:13:26.598Z,96.28
2019-03-17T00:15:56.674Z,98.12
2019-03-17T00:18:26.741Z,89.75
2019-03-17T00:20:56.879Z,89.28
2019-03-17T00:23:26.949Z,88.12
2019-03-17T00:25:57.318Z,87.35
2019-03-17T00:28:27.462Z,91.08
2019-03-17T00:30:57.464Z,92.55
2019-03-17T00:33:27.452Z,99.17
2019-03-17T00:35:57.556Z,86.82
2019-03-17T00:38:27.947Z,89.25
2019-03-17T00:40:58.084Z,104.00
2019-03-17T00:43:28.222Z,85.42
2019-03-17T00:45:58.655Z,90.20
2019-03-17T00:48:28.720Z,96.05
2019-03-17T00:50:58.787Z,89.15
2019-03-17T00:53:28.871Z,95.45
2019-03-17T00:55:58.928Z,92.65
2019-03-17T00:58:29.010Z,92.40
2019-03-17T01:01:00.074Z,101.45
2019-03-17T01:03:30.183Z,91.42
2019-03-17T01:06:00.705Z,93.72
2019-03-17T01:08:30.910Z,82.88
2019-03-17T01:11:00.977Z,83.20
2019-03-17T01:13:31.050Z,94.70
2019-03-17T01:16:01.120Z,83.75
2019-03-17T01:18:31.202Z,85.80
2019-03-17T01:21:01.343Z,92.25
2019-03-17T01:23:31.834Z,93.97
2019-03-17T01:26:01.976Z,87.17
2019-03-17T01:28:32.107Z,87.88
2019-03-17T01:31:02.514Z,87.00
2019-03-17T01:33:32.505Z,93.42
2019-03-17T01:36:02.577Z,91.20
2019-03-17T01:38:32.788Z,86.78
2019-03-17T01:41:02.781Z,87.80
2019-03-17T01:43:33.920Z,97.05
2019-03-17T01:46:04.553Z,91.25
2019-03-17T01:48:34.637Z,86.00
2019-03-17T01:51:04.702Z,83.85
2019-03-17T01:53:34.864Z,79.65
2019-03-17T01:56:04.860Z,83.92
2019-03-17T01:58:34.936Z,89.85
2019-03-17T02:01:05.382Z,83.72
2019-03-17T02:03:35.375Z,86.90
2019-03-17T02:06:06.521Z,89.45
2019-03-17T02:08:36.651Z,95.32
2019-03-17T02:11:06.903Z,90.17
2019-03-17T02:13:37.025Z,92.88
2019-03-17T02:16:07.026Z,95.47
2019-03-17T02:18:36.996Z,89.45
2019-03-17T02:21:07.193Z,92.00
2019-03-17T02:23:37.194Z,92.95
2019-03-17T02:26:07.280Z,91.10
2019-03-17T02:28:37.423Z,92.17
2019-03-17T02:31:07.490Z,88.40
2019-03-17T02:33:37.949Z,83.60
2019-03-17T02:36:08.087Z,84.70
2019-03-17T02:38:38.175Z,81.32
2019-03-17T02:41:08.229Z,84.45
2019-03-17T02:43:38.316Z,83.52
2019-03-17T02:46:08.512Z,86.55
2019-03-17T02:48:38.697Z,83.78
2019-03-17T02:51:08.752Z,89.75
2019-03-17T02:53:39.118Z,81.12
2019-03-17T02:56:09.645Z,88.22
2019-03-17T02:58:39.645Z,91.67
2019-03-17T03:01:10.975Z,89.17
2019-03-17T03:03:41.550Z,91.60
2019-03-17T03:06:11.688Z,95.45
2019-03-17T03:08:42.189Z,97.80
2019-03-17T03:11:12.372Z,93.58
2019-03-17T03:13:42.437Z,83.37
2019-03-17T03:16:12.542Z,84.40
2019-03-17T03:18:42.678Z,92.92
2019-03-17T03:21:12.747Z,89.20
2019-03-17T03:23:43.034Z,87.67
2019-03-17T03:26:13.106Z,87.72
2019-03-17T03:28:43.177Z,88.15
2019-03-17T03:31:13.320Z,88.17
2019-03-17T03:33:43.811Z,87.82
2019-03-17T03:36:13.864Z,90.72
2019-03-17T03:38:44.342Z,85.10
2019-03-17T03:41:14.475Z,90.50
2019-03-17T03:43:44.614Z,89.03
2019-03-17T03:46:15.116Z,87.37
2019-03-17T03:48:45.390Z,90.10
2019-03-17T03:51:15.749Z,94.32
2019-03-17T03:53:46.182Z,93.17
2019-03-17T03:56:16.259Z,93.00
2019-03-17T03:58:47.093Z,95.50
2019-03-17T04:01:17.233Z,92.95
2019-03-17T04:03:47.469Z,95.87
2019-03-17T04:06:26.195Z,96.95
2019-03-17T04:08:49.174Z,95.42
2019-03-17T04:11:19.683Z,86.35
2019-03-17T04:13:49.754Z,89.72
2019-03-17T04:16:19.833Z,89.50
2019-03-17T04:18:49.831Z,86.80
2019-03-17T04:21:19.903Z,90.10
2019-03-17T04:23:50.318Z,88.03
2019-03-17T04:26:20.410Z,93.72
2019-03-17T04:28:50.473Z,93.37
2019-03-17T04:31:20.611Z,88.47
2019-03-17T04:33:50.961Z,91.55
2019-03-17T04:36:21.291Z,87.57
2019-03-17T04:38:51.721Z,84.17
2019-03-17T04:41:22.774Z,89.28
2019-03-17T04:43:53.295Z,80.67
2019-03-17T04:46:23.360Z,94.17
2019-03-17T04:48:53.523Z,101.70
2019-03-17T04:51:23.496Z,91.57
2019-03-17T04:53:53.561Z,93.97
2019-03-17T04:56:23.718Z,88.33
2019-03-17T04:58:53.716Z,89.15
2019-03-17T05:01:23.806Z,88.65
2019-03-17T05:03:54.244Z,88.45
2019-03-17T05:06:24.614Z,78.47
2019-03-17T05:08:54.972Z,86.72
2019-03-17T05:11:25.326Z,85.15
2019-03-17T05:13:55.320Z,79.25
2019-03-17T05:16:25.658Z,83.60
2019-03-17T05:18:55.806Z,92.62
2019-03-17T05:21:25.864Z,89.55
2019-03-17T05:23:56.004Z,84.97
2019-03-17T05:26:26.454Z,83.07
2019-03-17T05:28:56.764Z,96.15
2019-03-17T05:31:26.760Z,100.55
2019-03-17T05:33:56.916Z,106.92
2019-03-17T05:36:27.339Z,112.70
2019-03-17T05:38:58.561Z,108.25
2019-03-17T05:41:29.012Z,109.20
2019-03-17T05:43:59.533Z,101.07
2019-03-17T05:46:29.545Z,105.80
2019-03-17T05:48:59.613Z,114.50
2019-03-17T05:51:29.985Z,106.20
2019-03-17T05:54:00.240Z,113.52
2019-03-17T05:56:30.856Z,107.97
2019-03-17T05:59:01.275Z,102.40
2019-03-17T06:01:31.702Z,108.72
2019-03-17T06:04:01.845Z,109.52
2019-03-17T06:06:32.255Z,105.15
2019-03-17T06:09:02.386Z,102.65
2019-03-17T06:11:32.499Z,99.77
2019-03-17T06:14:02.511Z,102.47
2019-03-17T06:16:32.658Z,108.32
2019-03-17T06:19:02.737Z,107.78
2019-03-17T06:21:33.177Z,102.45
2019-03-17T06:24:03.696Z,107.58
2019-03-17T06:26:33.906Z,111.95
2019-03-17T06:29:03.981Z,108.22
2019-03-17T06:31:34.057Z,103.70
2019-03-17T06:34:05.279Z,109.32
2019-03-17T06:36:35.747Z,112.42
2019-03-17T06:39:07.194Z,109.50
2019-03-17T06:41:38.737Z,102.30
2019-03-17T06:44:08.886Z,105.52
2019-03-17T06:46:39.283Z,104.00
2019-03-17T06:49:09.437Z,102.38
2019-03-17T06:51:40.493Z,103.78
2019-03-17T06:54:10.759Z,107.83
2019-03-17T06:56:41.302Z,107.30
2019-03-17T06:59:11.724Z,99.87
2019-03-17T07:01:41.868Z,106.20
2019-03-17T07:04:12.009Z,100.78
2019-03-17T07:06:42.163Z,99.45
2019-03-17T07:09:12.788Z,95.60
2019-03-17T07:11:43.034Z,97.47
2019-03-17T07:14:13.093Z,99.50
2019-03-17T07:16:43.182Z,104.05
2019-03-17T07:19:13.286Z,105.22
2019-03-17T07:21:43.720Z,96.70
2019-03-17T07:24:13.934Z,107.80
2019-03-17T07:26:44.104Z,102.72
2019-03-17T07:29:14.176Z,100.95
2019-03-17T07:31:44.629Z,102.15
2019-03-17T07:34:14.634Z,97.75
2019-03-17T07:36:44.764Z,95.17
2019-03-17T07:39:14.848Z,95.25
2019-03-17T07:41:44.917Z,98.95
2019-03-17T07:44:15.408Z,101.75
2019-03-17T07:46:45.482Z,95.77
2019-03-17T07:49:15.629Z,97.25
2019-03-17T07:51:45.777Z,103.58
2019-03-17T07:54:15.848Z,92.05
2019-03-17T07:56:45.846Z,93.65
2019-03-17T07:59:16.038Z,92.02
2019-03-17T08:01:46.467Z,96.45
2019-03-17T08:04:16.541Z,93.58
2019-03-17T08:06:47.010Z,97.92
2019-03-17T08:09:17.573Z,98.85
2019-03-17T08:11:47.575Z,92.40
2019-03-17T08:14:17.709Z,91.82
2019-03-17T08:16:48.198Z,91.30
2019-03-17T08:19:18.359Z,89.60
2019-03-17T08:21:48.854Z,86.65
2019-03-17T08:24:19.277Z,91.50
2019-03-17T08:26:50.229Z,92.92
2019-03-17T08:29:20.842Z,88.20
2019-03-17T08:31:50.912Z,92.20
2019-03-17T08:34:21.393Z,95.17
2019-03-17T08:36:51.818Z,87.30
2019-03-17T08:39:21.953Z,88.45
2019-03-17T08:41:52.490Z,86.35
2019-03-17T08:44:23.636Z,83.37
2019-03-17T08:46:53.701Z,87.88
2019-03-17T08:49:23.852Z,80.77
2019-03-17T08:51:54.202Z,78.07
2019-03-17T08:54:24.612Z,77.85
2019-03-17T08:56:54.962Z,74.10
2019-03-17T08:59:24.972Z,73.45
2019-03-17T09:01:55.049Z,78.45
2019-03-17T09:04:26.119Z,73.70
2019-03-17T09:06:56.136Z,76.82
2019-03-17T09:09:27.337Z,78.90
2019-03-17T09:11:57.782Z,72.37
2019-03-17T09:14:28.133Z,82.82
2019-03-17T09:16:58.525Z,72.42
2019-03-17T09:19:28.973Z,73.02
2019-03-17T09:21:59.126Z,75.57
2019-03-17T09:24:29.195Z,69.05
2019-03-17T09:26:59.334Z,62.30
2019-03-17T09:29:29.421Z,64.22
2019-03-17T09:31:59.484Z,49.67
2019-03-17T09:34:29.489Z,46.10
2019-03-17T09:36:59.487Z,51.30
2019-03-17T09:39:29.492Z,51.18
2019-03-17T09:41:59.653Z,50.23
2019-03-17T09:44:29.662Z,50.00
2019-03-17T09:46:59.734Z,49.13
2019-03-17T09:49:29.911Z,45.17
2019-03-17T09:52:00.413Z,46.08
2019-03-17T09:54:30.434Z,47.43
2019-03-17T09:57:00.597Z,51.45
2019-03-17T09:59:30.681Z,50.65
2019-03-17T10:02:01.037Z,48.87
2019-03-17T10:04:31.092Z,44.85
2019-03-17T10:07:01.174Z,49.27
2019-03-17T10:09:31.563Z,43.28
2019-03-17T10:12:01.560Z,44.73
2019-03-17T10:14:31.562Z,40.17
2019-03-17T10:17:03.027Z,42.60
2019-03-17T10:19:33.089Z,33.92
2019-03-17T10:22:03.494Z,35.85
2019-03-17T10:24:33.567Z,34.20
2019-03-17T10:27:03.635Z,33.75
2019-03-17T10:29:34.069Z,35.10
2019-03-17T10:32:04.585Z,35.70
2019-03-17T10:34:34.607Z,38.00
2019-03-17T10:37:04.741Z,35.73
2019-03-17T10:39:35.987Z,34.38
2019-03-17T10:42:06.071Z,36.48
2019-03-17T10:44:36.300Z,28.52
2019-03-17T10:47:06.369Z,32.23
2019-03-17T10:49:36.749Z,27.45
2019-03-17T10:52:06.886Z,31.00
2019-03-17T10:54:37.296Z,27.13
2019-03-17T10:57:07.365Z,35.52
2019-03-17T10:59:37.582Z,27.93
2019-03-17T11:02:07.730Z,34.75
2019-03-17T11:04:38.197Z,35.13
2019-03-17T11:07:08.624Z,30.77
2019-03-17T11:09:38.760Z,29.02
2019-03-17T11:12:08.906Z,30.90
2019-03-17T11:14:38.888Z,29.92
2019-03-17T11:17:09.296Z,28.23
2019-03-17T11:19:39.828Z,26.23
2019-03-17T11:22:10.260Z,28.60
2019-03-17T11:24:40.341Z,31.12
2019-03-17T11:27:10.800Z,30.92
2019-03-17T11:29:41.338Z,27.35
2019-03-17T11:32:11.881Z,31.97
2019-03-17T11:34:41.865Z,31.55
2019-03-17T11:37:11.993Z,27.95
2019-03-17T11:39:42.074Z,30.43
2019-03-17T11:42:12.212Z,31.23
2019-03-17T11:44:42.277Z,27.27
2019-03-17T11:47:12.278Z,31.42
2019-03-17T11:49:42.782Z,28.25
2019-03-17T11:52:14.349Z,28.17
2019-03-17T11:54:44.498Z,32.60
2019-03-17T11:57:15.002Z,30.00
2019-03-17T11:59:45.066Z,31.60
2019-03-17T12:02:26.068Z,31.75
2019-03-17T12:04:47.190Z,26.20
2019-03-17T12:07:17.264Z,24.75
2019-03-17T12:09:50.318Z,32.75
2019-03-17T12:12:19.402Z,33.58
2019-03-17T12:14:49.464Z,31.60
2019-03-17T12:17:19.610Z,34.70
2019-03-17T12:19:49.673Z,32.55
2019-03-17T12:22:19.821Z,29.23
2019-03-17T12:24:49.894Z,30.45
2019-03-17T12:27:19.993Z,28.90
2019-03-17T12:29:50.078Z,32.45
2019-03-17T12:32:20.152Z,34.50
2019-03-17T12:34:50.159Z,26.97
2019-03-17T12:37:20.145Z,31.33
2019-03-17T12:40:01.767Z,30.95
2019-03-17T12:42:21.903Z,33.88
2019-03-17T12:44:52.394Z,31.37
2019-03-17T12:47:22.534Z,36.85
2019-03-17T12:49:52.671Z,33.60
2019-03-17T12:52:23.743Z,35.40
2019-03-17T12:54:54.211Z,29.32
2019-03-17T12:57:24.223Z,27.87
2019-03-17T12:59:54.358Z,35.38
2019-03-17T13:02:24.435Z,32.70
2019-03-17T13:04:54.886Z,44.25
2019-03-17T13:07:25.319Z,35.43
2019-03-17T13:09:55.386Z,33.02
2019-03-17T13:12:25.596Z,37.60
2019-03-17T13:14:55.956Z,34.70
2019-03-17T13:17:26.105Z,30.60
2019-03-17T13:19:56.169Z,32.78
2019-03-17T13:22:26.343Z,30.65
2019-03-17T13:24:56.410Z,32.20
2019-03-17T13:27:26.487Z,32.95
2019-03-17T13:29:56.609Z,28.45
2019-03-17T13:32:27.028Z,37.45
2019-03-17T13:34:57.162Z,32.30
2019-03-17T13:37:27.160Z,33.60
2019-03-17T13:39:57.301Z,27.98
2019-03-17T13:42:27.714Z,28.70
2019-03-17T13:44:57.776Z,34.78
2019-03-17T13:47:27.842Z,37.73
2019-03-17T13:49:58.273Z,33.28
2019-03-17T13:52:28.334Z,41.75
2019-03-17T13:54:58.449Z,33.58
2019-03-17T13:57:28.522Z,33.08
2019-03-17T13:59:58.596Z,33.95
2019-03-17T14:02:29.070Z,33.92
2019-03-17T14:04:59.275Z,33.08
2019-03-17T14:07:29.349Z,29.55
2019-03-17T14:09:59.756Z,30.68
2019-03-17T14:12:29.817Z,33.10
2019-03-17T14:15:00.248Z,39.27
2019-03-17T14:17:30.528Z,38.17
2019-03-17T14:20:00.595Z,32.88
2019-03-17T14:22:30.665Z,27.15
2019-03-17T14:25:02.199Z,33.63
2019-03-17T14:27:32.274Z,32.70
2019-03-17T14:30:02.860Z,35.70
2019-03-17T14:32:33.298Z,31.12
2019-03-17T14:35:04.319Z,30.17
2019-03-17T14:37:34.458Z,31.33
2019-03-17T14:40:07.561Z,30.65
2019-03-17T14:42:37.706Z,29.50
2019-03-17T14:45:11.078Z,31.68
2019-03-17T14:47:41.676Z,36.33
2019-03-17T14:50:20.270Z,31.02
2019-03-17T14:52:51.323Z,31.40
2019-03-17T14:55:21.857Z,33.28
2019-03-17T14:57:52.014Z,33.18
2019-03-17T15:00:25.192Z,28.10
2019-03-17T15:02:55.518Z,35.73
2019-03-17T15:05:25.633Z,34.05
2019-03-17T15:07:55.725Z,33.58
2019-03-17T15:10:26.312Z,32.67
2019-03-17T15:12:56.729Z,30.43
2019-03-17T15:15:26.884Z,30.35
2019-03-17T15:17:57.017Z,31.35
2019-03-17T15:20:28.093Z,34.13
2019-03-17T15:22:58.284Z,33.23
2019-03-17T15:25:30.159Z,37.25
2019-03-17T15:28:00.229Z,35.78
2019-03-17T15:30:32.350Z,29.25
2019-03-17T15:33:02.405Z,34.78
2019-03-17T15:35:32.474Z,36.53
2019-03-17T15:38:02.534Z,32.55
2019-03-17T15:40:32.629Z,40.08
2019-03-17T15:43:02.696Z,30.90
2019-03-17T15:45:33.154Z,33.28
2019-03-17T15:48:04.347Z,30.05
2019-03-17T15:50:35.097Z,34.63
2019-03-17T15:53:05.168Z,33.48
2019-03-17T15:55:35.377Z,44.00
2019-03-17T15:58:05.910Z,28.38
2019-03-17T16:00:36.230Z,37.48
2019-03-17T16:03:06.377Z,29.77
2019-03-17T16:05:36.431Z,30.62
2019-03-17T16:08:06.518Z,33.25
2019-03-17T16:10:36.580Z,36.28
2019-03-17T16:13:06.686Z,32.70
2019-03-17T16:15:37.049Z,39.27
2019-03-17T16:18:07.262Z,31.20
2019-03-17T16:20:37.258Z,29.82
2019-03-17T16:23:07.269Z,32.17
2019-03-17T16:25:38.625Z,34.15
2019-03-17T16:28:09.098Z,40.03
2019-03-17T16:30:39.611Z,44.50
2019-03-17T16:33:09.706Z,40.08
2019-03-17T16:35:40.100Z,41.58
2019-03-17T16:38:10.241Z,42.35
2019-03-17T16:40:40.723Z,33.30
2019-03-17T16:43:11.239Z,41.33
2019-03-17T16:45:41.443Z,35.75
2019-03-17T16:48:11.926Z,36.98
2019-03-17T16:50:42.318Z,40.58
2019-03-17T16:53:12.309Z,36.70
2019-03-17T16:55:42.687Z,40.67
2019-03-17T16:58:13.044Z,34.73
2019-03-17T17:00:43.475Z,36.33
2019-03-17T17:03:14.713Z,36.73
2019-03-17T17:05:46.316Z,33.75
2019-03-17T17:08:16.372Z,44.60
2019-03-17T17:10:50.256Z,37.75
2019-03-17T17:13:18.170Z,34.30
2019-03-17T17:15:48.637Z,42.50
2019-03-17T17:18:18.918Z,43.45
2019-03-17T17:20:49.002Z,40.10
2019-03-17T17:23:19.142Z,29.65
2019-03-17T17:25:49.500Z,37.65
2019-03-17T17:28:19.613Z,37.70
2019-03-17T17:30:49.833Z,36.65
2019-03-17T17:33:19.901Z,31.85
2019-03-17T17:35:50.044Z,38.88
2019-03-17T17:38:20.204Z,42.90
2019-03-17T17:40:50.356Z,42.38
2019-03-17T17:43:20.758Z,36.28
2019-03-17T17:45:50.841Z,30.55
2019-03-17T17:48:21.076Z,39.92
2019-03-17T17:50:51.451Z,46.77
2019-03-17T17:53:22.056Z,32.08
2019-03-17T17:55:52.133Z,37.42
2019-03-17T17:58:22.261Z,36.23
2019-03-17T18:00:52.445Z,37.83
2019-03-17T18:03:22.485Z,39.80
2019-03-17T18:05:52.855Z,40.85
2019-03-17T18:08:23.287Z,37.40
2019-03-17T18:10:53.719Z,38.65
2019-03-17T18:13:23.769Z,40.65
2019-03-17T18:15:54.218Z,35.95
2019-03-17T18:18:25.364Z,41.73
2019-03-17T18:20:55.830Z,44.60
2019-03-17T18:23:25.913Z,40.92
2019-03-17T18:25:56.038Z,39.67
2019-03-17T18:28:26.043Z,44.23
2019-03-17T18:30:56.629Z,42.15
2019-03-17T18:33:26.705Z,40.90
2019-03-17T18:35:56.869Z,40.52
2019-03-17T18:38:27.282Z,40.00
2019-03-17T18:40:57.425Z,41.98
2019-03-17T18:43:27.528Z,36.28
2019-03-17T18:45:57.950Z,49.27
2019-03-17T18:48:27.953Z,40.50
2019-03-17T18:50:58.416Z,40.98
2019-03-17T18:53:28.475Z,41.58
2019-03-17T18:55:58.566Z,35.68
2019-03-17T18:58:28.637Z,45.40
2019-03-17T19:00:59.104Z,37.40
2019-03-17T19:03:29.199Z,33.90
2019-03-17T19:05:59.338Z,42.58
2019-03-17T19:08:29.538Z,38.55
2019-03-17T19:10:59.680Z,44.38
2019-03-17T19:13:30.191Z,35.45
2019-03-17T19:16:00.280Z,43.38
2019-03-17T19:18:30.347Z,39.45
2019-03-17T19:21:00.751Z,41.28
2019-03-17T19:23:30.752Z,41.95
2019-03-17T19:26:00.745Z,32.20
2019-03-17T19:28:31.209Z,49.20
2019-03-17T19:31:01.637Z,36.90
2019-03-17T19:33:32.181Z,37.63
2019-03-17T19:36:02.170Z,40.23
2019-03-17T19:38:32.242Z,39.23
2019-03-17T19:41:02.305Z,28.85
2019-03-17T19:43:32.853Z,33.18
2019-03-17T19:46:03.376Z,39.55
2019-03-17T19:48:33.804Z,35.33
2019-03-17T19:51:03.941Z,38.90
2019-03-17T19:53:34.022Z,40.90
2019-03-17T19:56:04.160Z,36.80
2019-03-17T19:58:34.369Z,36.30
2019-03-17T20:01:04.543Z,40.92
2019-03-17T20:03:34.584Z,36.30
2019-03-17T20:06:04.735Z,31.75
2019-03-17T20:08:34.792Z,34.25
2019-03-17T20:11:05.593Z,30.85
2019-03-17T20:13:35.662Z,26.52
2019-03-17T20:16:06.142Z,23.73
2019-03-17T20:18:36.577Z,25.90
2019-03-17T20:21:06.853Z,29.70
2019-03-17T20:23:36.940Z,30.43
2019-03-17T20:26:07.085Z,32.80
2019-03-17T20:28:37.229Z,20.97
2019-03-17T20:31:07.362Z,30.00
2019-03-17T20:33:37.372Z,25.55
2019-03-17T20:36:07.508Z,23.25
2019-03-17T20:38:37.591Z,22.13
2019-03-17T20:41:08.156Z,27.25
2019-03-17T20:43:38.167Z,23.07
2019-03-17T20:46:08.233Z,21.02
2019-03-17T20:48:38.307Z,24.77
2019-03-17T20:51:08.517Z,22.87
2019-03-17T20:53:38.975Z,18.62
2019-03-17T20:56:08.978Z,17.15
2019-03-17T20:58:39.125Z,23.00
2019-03-17T21:01:09.284Z,19.52
2019-03-17T21:03:39.350Z,19.17
2019-03-17T21:06:09.668Z,21.30
2019-03-17T21:08:40.081Z,19.75
2019-03-17T21:11:10.150Z,19.70
2019-03-17T21:13:46.683Z,17.42
2019-03-17T21:16:12.244Z,16.77
2019-03-17T21:18:42.721Z,19.77
2019-03-17T21:21:13.069Z,17.95
2019-03-17T21:23:43.194Z,25.30
2019-03-17T21:26:13.276Z,23.60
2019-03-17T21:28:43.273Z,22.15
2019-03-17T21:31:13.386Z,15.43
2019-03-17T21:33:43.452Z,18.42
2019-03-17T21:36:13.509Z,23.12
2019-03-17T21:38:43.941Z,16.25
2019-03-17T21:41:14.060Z,17.87
2019-03-17T21:43:44.133Z,16.55
2019-03-17T21:46:14.189Z,15.43
2019-03-17T21:48:44.325Z,19.48
2019-03-17T21:51:14.886Z,17.20
2019-03-17T21:53:45.101Z,18.45
2019-03-17T21:56:15.159Z,14.53
2019-03-17T21:58:45.216Z,15.20
2019-03-17T22:01:15.209Z,12.33
2019-03-17T22:03:45.303Z,17.45
2019-03-17T22:06:15.284Z,16.60
2019-03-17T22:08:45.839Z,15.70
2019-03-17T22:11:16.163Z,17.02
2019-03-17T22:13:46.294Z,19.10
2019-03-17T22:16:16.805Z,10.93
2019-03-17T22:18:47.120Z,16.97
2019-03-17T22:21:17.262Z,16.97
2019-03-17T22:23:47.385Z,15.00
2019-03-17T22:26:17.456Z,18.05
2019-03-17T22:28:47.515Z,15.10
2019-03-17T22:31:17.927Z,15.75
2019-03-17T22:33:48.353Z,21.25
2019-03-17T22:36:18.354Z,17.62
2019-03-17T22:38:48.331Z,14.98
2019-03-17T22:41:18.337Z,15.93
2019-03-17T22:43:48.398Z,16.32
2019-03-17T22:46:18.760Z,13.65
2019-03-17T22:48:48.890Z,13.08
2019-03-17T22:51:19.097Z,12.98
2019-03-17T22:53:49.369Z,16.50
2019-03-17T22:56:19.842Z,14.58
2019-03-17T22:58:49.979Z,20.80
2019-03-17T23:01:20.026Z,13.22
2019-03-17T23:03:50.127Z,17.92
2019-03-17T23:06:20.248Z,18.20
2019-03-17T23:08:50.310Z,19.32
2019-03-17T23:11:20.293Z,16.07
2019-03-17T23:13:51.600Z,24.55
2019-03-17T23:16:22.020Z,19.20
2019-03-17T23:18:52.448Z,14.98
2019-03-17T23:21:22.773Z,17.00
2019-03-17T23:23:53.312Z,16.77
2019-03-17T23:26:23.724Z,18.25
2019-03-17T23:28:53.933Z,16.93
2019-03-17T23:31:24.382Z,17.30
2019-03-17T23:33:54.720Z,19.67
2019-03-17T23:36:25.028Z,12.68
2019-03-17T23:38:55.448Z,16.10
2019-03-17T23:41:25.782Z,16.55
2019-03-17T23:43:55.839Z,17.80
2019-03-17T23:46:25.906Z,20.23
2019-03-17T23:48:55.960Z,14.10
2019-03-17T23:51:26.106Z,18.05
2019-03-17T23:53:56.165Z,21.60
2019-03-17T23:56:26.696Z,19.60
2019-03-17T23:58:56.828Z,20.25
